sensor_id;sensor_type;location;lat;lon;timestamp;P1;durP1;ratioP1;P2;durP2;ratioP2
12958;SDS011;6544;51.666;6.634;2023-03-05T00:02:15;12.93;;;2.97;;
12958;SDS011;6544;51.666;6.634;2023-03-05T00:04:42;12.10;;;3.33;;
12958;SDS011;6544;51.666;6.634;2023-03-05T00:07:09;18.67;;;3.43;;
12958;SDS011;6544;51.666;6.634;2023-03-05T00:09:36;11.63;;;2.97;;
12958;SDS011;6544;51.666;6.634;2023-03-05T00:12:05;7.43;;;2.60;;
12958;SDS011;6544;51.666;6.634;2023-03-05T00:14:33;8.77;;;2.67;;
12958;SDS011;6544;51.666;6.634;2023-03-05T00:16:59;12.23;;;3.47;;
12958;SDS011;6544;51.666;6.634;2023-03-05T00:19:26;12.97;;;3.20;;
12958;SDS011;6544;51.666;6.634;2023-03-05T00:21:53;12.30;;;3.70;;
12958;SDS011;6544;51.666;6.634;2023-03-05T00:24:20;12.80;;;2.97;;
12958;SDS011;6544;51.666;6.634;2023-03-05T00:26:47;11.77;;;3.10;;
12958;SDS011;6544;51.666;6.634;2023-03-05T00:29:16;8.40;;;2.93;;
12958;SDS011;6544;51.666;6.634;2023-03-05T00:31:45;16.93;;;3.37;;
12958;SDS011;6544;51.666;6.634;2023-03-05T00:34:14;9.80;;;3.13;;
12958;SDS011;6544;51.666;6.634;2023-03-05T00:36:43;12.50;;;3.43;;
12958;SDS011;6544;51.666;6.634;2023-03-05T00:39:11;11.03;;;3.23;;
12958;SDS011;6544;51.666;6.634;2023-03-05T00:41:39;12.33;;;3.87;;
12958;SDS011;6544;51.666;6.634;2023-03-05T00:44:06;8.60;;;3.03;;
12958;SDS011;6544;51.666;6.634;2023-03-05T00:46:35;8.50;;;2.90;;
12958;SDS011;6544;51.666;6.634;2023-03-05T00:49:02;13.90;;;3.77;;
12958;SDS011;6544;51.666;6.634;2023-03-05T00:51:29;14.97;;;3.60;;
12958;SDS011;6544;51.666;6.634;2023-03-05T00:53:56;17.17;;;3.53;;
12958;SDS011;6544;51.666;6.634;2023-03-05T00:56:23;8.70;;;3.20;;
12958;SDS011;6544;51.666;6.634;2023-03-05T00:58:50;14.90;;;3.60;;
12958;SDS011;6544;51.666;6.634;2023-03-05T01:01:17;14.57;;;3.67;;
12958;SDS011;6544;51.666;6.634;2023-03-05T01:03:45;10.87;;;3.63;;
12958;SDS011;6544;51.666;6.634;2023-03-05T01:06:12;12.50;;;3.50;;
12958;SDS011;6544;51.666;6.634;2023-03-05T01:08:40;11.03;;;3.50;;
12958;SDS011;6544;51.666;6.634;2023-03-05T01:11:07;13.23;;;3.77;;
12958;SDS011;6544;51.666;6.634;2023-03-05T01:13:35;11.37;;;3.50;;
12958;SDS011;6544;51.666;6.634;2023-03-05T01:16:02;10.90;;;3.50;;
12958;SDS011;6544;51.666;6.634;2023-03-05T01:18:30;14.87;;;3.87;;
12958;SDS011;6544;51.666;6.634;2023-03-05T01:20:58;13.00;;;3.93;;
12958;SDS011;6544;51.666;6.634;2023-03-05T01:23:25;10.77;;;3.90;;
12958;SDS011;6544;51.666;6.634;2023-03-05T01:25:52;10.70;;;3.53;;
12958;SDS011;6544;51.666;6.634;2023-03-05T01:28:20;9.83;;;3.47;;
12958;SDS011;6544;51.666;6.634;2023-03-05T01:30:47;13.03;;;4.07;;
12958;SDS011;6544;51.666;6.634;2023-03-05T01:33:14;8.97;;;3.20;;
12958;SDS011;6544;51.666;6.634;2023-03-05T01:35:41;15.50;;;4.10;;
12958;SDS011;6544;51.666;6.634;2023-03-05T01:38:12;13.57;;;3.80;;
12958;SDS011;6544;51.666;6.634;2023-03-05T01:40:39;14.70;;;3.70;;
12958;SDS011;6544;51.666;6.634;2023-03-05T01:43:18;9.73;;;3.60;;
12958;SDS011;6544;51.666;6.634;2023-03-05T01:48:56;14.03;;;3.77;;
12958;SDS011;6544;51.666;6.634;2023-03-05T01:51:35;15.23;;;3.60;;
12958;SDS011;6544;51.666;6.634;2023-03-05T01:54:07;15.33;;;4.00;;
12958;SDS011;6544;51.666;6.634;2023-03-05T01:56:36;11.47;;;3.40;;
12958;SDS011;6544;51.666;6.634;2023-03-05T01:59:04;9.47;;;3.40;;
12958;SDS011;6544;51.666;6.634;2023-03-05T02:01:32;10.03;;;3.90;;
12958;SDS011;6544;51.666;6.634;2023-03-05T02:04:03;13.23;;;3.63;;
12958;SDS011;6544;51.666;6.634;2023-03-05T02:06:31;11.13;;;3.50;;
12958;SDS011;6544;51.666;6.634;2023-03-05T02:08:59;6.97;;;3.40;;
12958;SDS011;6544;51.666;6.634;2023-03-05T02:11:27;12.47;;;3.30;;
12958;SDS011;6544;51.666;6.634;2023-03-05T02:13:55;9.93;;;3.40;;
12958;SDS011;6544;51.666;6.634;2023-03-05T02:16:22;14.27;;;3.63;;
12958;SDS011;6544;51.666;6.634;2023-03-05T02:18:49;11.37;;;3.50;;
12958;SDS011;6544;51.666;6.634;2023-03-05T02:21:27;13.27;;;3.47;;
12958;SDS011;6544;51.666;6.634;2023-03-05T02:24:00;14.57;;;3.97;;
12958;SDS011;6544;51.666;6.634;2023-03-05T02:26:27;13.73;;;3.47;;
12958;SDS011;6544;51.666;6.634;2023-03-05T02:28:54;12.47;;;3.50;;
12958;SDS011;6544;51.666;6.634;2023-03-05T02:31:25;13.17;;;3.10;;
12958;SDS011;6544;51.666;6.634;2023-03-05T02:33:52;9.87;;;3.73;;
12958;SDS011;6544;51.666;6.634;2023-03-05T02:36:21;10.30;;;3.20;;
12958;SDS011;6544;51.666;6.634;2023-03-05T02:38:49;14.70;;;3.70;;
12958;SDS011;6544;51.666;6.634;2023-03-05T02:41:17;12.40;;;3.33;;
12958;SDS011;6544;51.666;6.634;2023-03-05T02:43:44;10.53;;;3.07;;
12958;SDS011;6544;51.666;6.634;2023-03-05T02:46:11;8.33;;;3.40;;
12958;SDS011;6544;51.666;6.634;2023-03-05T02:48:38;12.47;;;3.17;;
12958;SDS011;6544;51.666;6.634;2023-03-05T02:51:05;13.20;;;3.50;;
12958;SDS011;6544;51.666;6.634;2023-03-05T02:53:33;13.40;;;3.37;;
12958;SDS011;6544;51.666;6.634;2023-03-05T02:56:03;12.30;;;3.57;;
12958;SDS011;6544;51.666;6.634;2023-03-05T02:58:30;13.47;;;3.57;;
12958;SDS011;6544;51.666;6.634;2023-03-05T03:00:57;9.60;;;3.40;;
12958;SDS011;6544;51.666;6.634;2023-03-05T03:03:24;8.17;;;3.10;;
12958;SDS011;6544;51.666;6.634;2023-03-05T03:05:50;8.13;;;3.23;;
12958;SDS011;6544;51.666;6.634;2023-03-05T03:08:17;10.00;;;3.77;;
12958;SDS011;6544;51.666;6.634;2023-03-05T03:10:44;5.90;;;3.13;;
12958;SDS011;6544;51.666;6.634;2023-03-05T03:13:12;8.77;;;3.40;;
12958;SDS011;6544;51.666;6.634;2023-03-05T03:15:39;9.20;;;3.30;;
12958;SDS011;6544;51.666;6.634;2023-03-05T03:18:06;11.17;;;3.50;;
12958;SDS011;6544;51.666;6.634;2023-03-05T03:20:33;11.23;;;3.47;;
12958;SDS011;6544;51.666;6.634;2023-03-05T03:23:03;7.97;;;3.27;;
12958;SDS011;6544;51.666;6.634;2023-03-05T03:25:30;6.07;;;3.33;;
12958;SDS011;6544;51.666;6.634;2023-03-05T03:27:57;9.50;;;3.00;;
12958;SDS011;6544;51.666;6.634;2023-03-05T03:30:25;8.13;;;3.03;;
12958;SDS011;6544;51.666;6.634;2023-03-05T03:32:52;8.93;;;2.80;;
12958;SDS011;6544;51.666;6.634;2023-03-05T03:35:19;5.53;;;2.87;;
12958;SDS011;6544;51.666;6.634;2023-03-05T03:37:46;6.20;;;3.03;;
12958;SDS011;6544;51.666;6.634;2023-03-05T03:40:13;8.93;;;3.00;;
12958;SDS011;6544;51.666;6.634;2023-03-05T03:42:40;9.80;;;3.40;;
12958;SDS011;6544;51.666;6.634;2023-03-05T03:45:07;6.13;;;3.27;;
12958;SDS011;6544;51.666;6.634;2023-03-05T03:47:36;9.97;;;3.83;;
12958;SDS011;6544;51.666;6.634;2023-03-05T03:50:03;6.27;;;3.10;;
12958;SDS011;6544;51.666;6.634;2023-03-05T03:52:30;9.23;;;3.47;;
12958;SDS011;6544;51.666;6.634;2023-03-05T03:54:57;10.00;;;3.50;;
12958;SDS011;6544;51.666;6.634;2023-03-05T03:57:26;9.10;;;2.90;;
12958;SDS011;6544;51.666;6.634;2023-03-05T03:59:54;9.43;;;3.53;;
12958;SDS011;6544;51.666;6.634;2023-03-05T04:02:21;8.23;;;3.20;;
12958;SDS011;6544;51.666;6.634;2023-03-05T04:04:49;9.07;;;3.83;;
12958;SDS011;6544;51.666;6.634;2023-03-05T04:07:16;8.97;;;3.60;;
12958;SDS011;6544;51.666;6.634;2023-03-05T04:09:43;9.47;;;3.60;;
12958;SDS011;6544;51.666;6.634;2023-03-05T04:12:10;11.20;;;3.67;;
12958;SDS011;6544;51.666;6.634;2023-03-05T04:14:42;9.23;;;3.90;;
12958;SDS011;6544;51.666;6.634;2023-03-05T04:17:09;8.43;;;3.63;;
12958;SDS011;6544;51.666;6.634;2023-03-05T04:19:36;9.30;;;3.60;;
12958;SDS011;6544;51.666;6.634;2023-03-05T04:22:05;10.10;;;3.67;;
12958;SDS011;6544;51.666;6.634;2023-03-05T04:24:32;10.97;;;3.60;;
12958;SDS011;6544;51.666;6.634;2023-03-05T04:26:59;8.87;;;3.53;;
12958;SDS011;6544;51.666;6.634;2023-03-05T04:29:25;10.50;;;3.80;;
12958;SDS011;6544;51.666;6.634;2023-03-05T04:31:52;12.53;;;4.03;;
12958;SDS011;6544;51.666;6.634;2023-03-05T04:34:19;13.07;;;4.00;;
12958;SDS011;6544;51.666;6.634;2023-03-05T04:36:46;7.77;;;3.63;;
12958;SDS011;6544;51.666;6.634;2023-03-05T04:39:14;15.13;;;4.30;;
12958;SDS011;6544;51.666;6.634;2023-03-05T04:41:41;9.20;;;4.00;;
12958;SDS011;6544;51.666;6.634;2023-03-05T04:44:08;14.27;;;4.10;;
12958;SDS011;6544;51.666;6.634;2023-03-05T04:46:35;9.80;;;3.80;;
12958;SDS011;6544;51.666;6.634;2023-03-05T04:49:02;15.53;;;4.50;;
12958;SDS011;6544;51.666;6.634;2023-03-05T04:51:29;10.60;;;4.00;;
12958;SDS011;6544;51.666;6.634;2023-03-05T04:53:56;10.53;;;3.97;;
12958;SDS011;6544;51.666;6.634;2023-03-05T04:56:24;14.60;;;4.23;;
12958;SDS011;6544;51.666;6.634;2023-03-05T04:58:51;15.03;;;4.33;;
12958;SDS011;6544;51.666;6.634;2023-03-05T05:01:18;10.30;;;4.40;;
12958;SDS011;6544;51.666;6.634;2023-03-05T05:03:45;11.77;;;4.30;;
12958;SDS011;6544;51.666;6.634;2023-03-05T05:06:12;11.23;;;4.57;;
12958;SDS011;6544;51.666;6.634;2023-03-05T05:08:39;11.93;;;4.30;;
12958;SDS011;6544;51.666;6.634;2023-03-05T05:11:06;12.20;;;4.47;;
12958;SDS011;6544;51.666;6.634;2023-03-05T05:13:37;13.77;;;4.37;;
12958;SDS011;6544;51.666;6.634;2023-03-05T05:16:05;15.47;;;5.17;;
12958;SDS011;6544;51.666;6.634;2023-03-05T05:18:32;16.67;;;4.50;;
12958;SDS011;6544;51.666;6.634;2023-03-05T05:20:59;13.87;;;4.13;;
12958;SDS011;6544;51.666;6.634;2023-03-05T05:23:26;9.83;;;3.70;;
12958;SDS011;6544;51.666;6.634;2023-03-05T05:25:56;13.63;;;4.50;;
12958;SDS011;6544;51.666;6.634;2023-03-05T05:28:24;12.40;;;3.90;;
12958;SDS011;6544;51.666;6.634;2023-03-05T05:30:53;11.30;;;4.10;;
12958;SDS011;6544;51.666;6.634;2023-03-05T05:33:20;10.83;;;3.80;;
12958;SDS011;6544;51.666;6.634;2023-03-05T05:35:48;13.13;;;3.80;;
12958;SDS011;6544;51.666;6.634;2023-03-05T05:38:15;10.00;;;3.80;;
12958;SDS011;6544;51.666;6.634;2023-03-05T05:40:42;13.67;;;4.70;;
12958;SDS011;6544;51.666;6.634;2023-03-05T05:43:09;9.77;;;3.50;;
12958;SDS011;6544;51.666;6.634;2023-03-05T05:45:36;12.17;;;4.10;;
12958;SDS011;6544;51.666;6.634;2023-03-05T05:48:07;14.47;;;3.90;;
12958;SDS011;6544;51.666;6.634;2023-03-05T05:50:36;12.20;;;4.93;;
12958;SDS011;6544;51.666;6.634;2023-03-05T05:53:03;11.23;;;4.10;;
12958;SDS011;6544;51.666;6.634;2023-03-05T05:55:29;14.40;;;4.57;;
12958;SDS011;6544;51.666;6.634;2023-03-05T05:57:56;12.73;;;4.33;;
12958;SDS011;6544;51.666;6.634;2023-03-05T06:00:23;14.90;;;4.37;;
12958;SDS011;6544;51.666;6.634;2023-03-05T06:02:50;13.70;;;4.43;;
12958;SDS011;6544;51.666;6.634;2023-03-05T06:05:18;17.63;;;4.53;;
12958;SDS011;6544;51.666;6.634;2023-03-05T06:07:48;9.80;;;4.67;;
12958;SDS011;6544;51.666;6.634;2023-03-05T06:10:14;13.90;;;4.67;;
12958;SDS011;6544;51.666;6.634;2023-03-05T06:12:41;16.13;;;4.93;;
12958;SDS011;6544;51.666;6.634;2023-03-05T06:15:08;9.90;;;4.33;;
12958;SDS011;6544;51.666;6.634;2023-03-05T06:17:35;13.23;;;5.10;;
12958;SDS011;6544;51.666;6.634;2023-03-05T06:20:02;13.43;;;4.87;;
12958;SDS011;6544;51.666;6.634;2023-03-05T06:22:32;15.40;;;5.07;;
12958;SDS011;6544;51.666;6.634;2023-03-05T06:25:01;10.03;;;4.97;;
12958;SDS011;6544;51.666;6.634;2023-03-05T06:27:28;15.00;;;5.17;;
12958;SDS011;6544;51.666;6.634;2023-03-05T06:29:55;12.77;;;5.57;;
12958;SDS011;6544;51.666;6.634;2023-03-05T06:32:22;16.97;;;5.97;;
12958;SDS011;6544;51.666;6.634;2023-03-05T06:34:49;11.20;;;4.87;;
12958;SDS011;6544;51.666;6.634;2023-03-05T06:37:16;17.57;;;6.33;;
12958;SDS011;6544;51.666;6.634;2023-03-05T06:39:47;7.70;;;4.50;;
12958;SDS011;6544;51.666;6.634;2023-03-05T06:42:14;17.00;;;5.33;;
12958;SDS011;6544;51.666;6.634;2023-03-05T06:44:41;11.77;;;4.93;;
12958;SDS011;6544;51.666;6.634;2023-03-05T06:47:09;14.40;;;5.10;;
12958;SDS011;6544;51.666;6.634;2023-03-05T06:49:36;9.07;;;4.43;;
12958;SDS011;6544;51.666;6.634;2023-03-05T06:52:03;11.00;;;4.47;;
12958;SDS011;6544;51.666;6.634;2023-03-05T06:54:34;9.10;;;4.80;;
12958;SDS011;6544;51.666;6.634;2023-03-05T06:57:03;12.27;;;4.70;;
12958;SDS011;6544;51.666;6.634;2023-03-05T06:59:30;9.67;;;4.57;;
12958;SDS011;6544;51.666;6.634;2023-03-05T07:01:56;11.87;;;4.77;;
12958;SDS011;6544;51.666;6.634;2023-03-05T07:04:23;11.77;;;4.93;;
12958;SDS011;6544;51.666;6.634;2023-03-05T07:06:50;15.10;;;4.87;;
12958;SDS011;6544;51.666;6.634;2023-03-05T07:09:17;8.03;;;4.10;;
12958;SDS011;6544;51.666;6.634;2023-03-05T07:11:44;11.40;;;4.93;;
12958;SDS011;6544;51.666;6.634;2023-03-05T07:14:13;12.57;;;4.67;;
12958;SDS011;6544;51.666;6.634;2023-03-05T07:16:40;13.90;;;4.83;;
12958;SDS011;6544;51.666;6.634;2023-03-05T07:19:06;12.07;;;4.20;;
12958;SDS011;6544;51.666;6.634;2023-03-05T07:21:34;13.00;;;4.70;;
12958;SDS011;6544;51.666;6.634;2023-03-05T07:24:02;9.10;;;4.50;;
12958;SDS011;6544;51.666;6.634;2023-03-05T07:26:30;10.07;;;4.47;;
12958;SDS011;6544;51.666;6.634;2023-03-05T07:28:58;11.97;;;4.70;;
12958;SDS011;6544;51.666;6.634;2023-03-05T07:31:29;11.20;;;5.20;;
12958;SDS011;6544;51.666;6.634;2023-03-05T07:33:57;12.40;;;5.00;;
12958;SDS011;6544;51.666;6.634;2023-03-05T07:36:24;9.97;;;5.20;;
12958;SDS011;6544;51.666;6.634;2023-03-05T07:38:51;10.70;;;5.03;;
12958;SDS011;6544;51.666;6.634;2023-03-05T07:41:19;11.93;;;5.57;;
12958;SDS011;6544;51.666;6.634;2023-03-05T07:43:49;11.50;;;5.63;;
12958;SDS011;6544;51.666;6.634;2023-03-05T07:46:18;13.53;;;6.50;;
12958;SDS011;6544;51.666;6.634;2023-03-05T07:48:47;10.50;;;5.40;;
12958;SDS011;6544;51.666;6.634;2023-03-05T07:51:15;15.90;;;5.43;;
12958;SDS011;6544;51.666;6.634;2023-03-05T07:53:44;13.57;;;6.00;;
12958;SDS011;6544;51.666;6.634;2023-03-05T07:56:12;16.77;;;6.67;;
12958;SDS011;6544;51.666;6.634;2023-03-05T07:58:39;19.93;;;6.93;;
12958;SDS011;6544;51.666;6.634;2023-03-05T08:01:10;19.47;;;8.07;;
12958;SDS011;6544;51.666;6.634;2023-03-05T08:03:39;13.83;;;5.70;;
12958;SDS011;6544;51.666;6.634;2023-03-05T08:06:07;13.00;;;5.70;;
12958;SDS011;6544;51.666;6.634;2023-03-05T08:08:36;11.90;;;5.33;;
12958;SDS011;6544;51.666;6.634;2023-03-05T08:11:03;14.57;;;5.70;;
12958;SDS011;6544;51.666;6.634;2023-03-05T08:13:33;11.97;;;5.23;;
12958;SDS011;6544;51.666;6.634;2023-03-05T08:16:03;12.30;;;5.03;;
12958;SDS011;6544;51.666;6.634;2023-03-05T08:18:30;11.87;;;4.93;;
12958;SDS011;6544;51.666;6.634;2023-03-05T08:20:58;11.90;;;5.37;;
12958;SDS011;6544;51.666;6.634;2023-03-05T08:23:26;13.50;;;5.97;;
12958;SDS011;6544;51.666;6.634;2023-03-05T08:25:54;10.80;;;6.13;;
12958;SDS011;6544;51.666;6.634;2023-03-05T08:28:21;12.83;;;6.40;;
12958;SDS011;6544;51.666;6.634;2023-03-05T08:30:48;16.63;;;7.67;;
12958;SDS011;6544;51.666;6.634;2023-03-05T08:33:15;14.23;;;7.27;;
12958;SDS011;6544;51.666;6.634;2023-03-05T08:35:44;14.27;;;7.13;;
12958;SDS011;6544;51.666;6.634;2023-03-05T08:38:11;14.93;;;7.97;;
12958;SDS011;6544;51.666;6.634;2023-03-05T08:40:39;17.07;;;7.50;;
12958;SDS011;6544;51.666;6.634;2023-03-05T08:43:07;14.33;;;7.63;;
12958;SDS011;6544;51.666;6.634;2023-03-05T08:45:34;14.53;;;7.43;;
12958;SDS011;6544;51.666;6.634;2023-03-05T08:48:01;14.40;;;8.10;;
12958;SDS011;6544;51.666;6.634;2023-03-05T08:50:27;12.73;;;7.60;;
12958;SDS011;6544;51.666;6.634;2023-03-05T08:52:54;17.93;;;7.27;;
12958;SDS011;6544;51.666;6.634;2023-03-05T08:55:22;12.63;;;6.20;;
12958;SDS011;6544;51.666;6.634;2023-03-05T08:57:50;17.40;;;7.47;;
12958;SDS011;6544;51.666;6.634;2023-03-05T09:00:20;15.83;;;7.03;;
12958;SDS011;6544;51.666;6.634;2023-03-05T09:02:47;12.43;;;6.90;;
12958;SDS011;6544;51.666;6.634;2023-03-05T09:05:15;11.27;;;6.67;;
12958;SDS011;6544;51.666;6.634;2023-03-05T09:07:43;17.70;;;6.93;;
12958;SDS011;6544;51.666;6.634;2023-03-05T09:10:10;14.13;;;7.00;;
12958;SDS011;6544;51.666;6.634;2023-03-05T09:12:39;11.27;;;6.37;;
12958;SDS011;6544;51.666;6.634;2023-03-05T09:15:08;14.53;;;6.50;;
12958;SDS011;6544;51.666;6.634;2023-03-05T09:17:37;14.00;;;6.33;;
12958;SDS011;6544;51.666;6.634;2023-03-05T09:20:06;12.77;;;6.43;;
12958;SDS011;6544;51.666;6.634;2023-03-05T09:22:36;12.30;;;6.80;;
12958;SDS011;6544;51.666;6.634;2023-03-05T09:25:03;12.97;;;6.97;;
12958;SDS011;6544;51.666;6.634;2023-03-05T09:27:32;10.03;;;6.27;;
12958;SDS011;6544;51.666;6.634;2023-03-05T09:29:59;12.10;;;6.30;;
12958;SDS011;6544;51.666;6.634;2023-03-05T09:32:27;9.00;;;5.80;;
12958;SDS011;6544;51.666;6.634;2023-03-05T09:34:54;10.70;;;6.17;;
12958;SDS011;6544;51.666;6.634;2023-03-05T09:37:21;14.60;;;6.83;;
12958;SDS011;6544;51.666;6.634;2023-03-05T09:39:53;15.07;;;6.07;;
12958;SDS011;6544;51.666;6.634;2023-03-05T09:45:13;11.97;;;5.60;;
12958;SDS011;6544;51.666;6.634;2023-03-05T09:47:50;7.93;;;4.43;;
12958;SDS011;6544;51.666;6.634;2023-03-05T09:50:27;4.83;;;3.33;;
12958;SDS011;6544;51.666;6.634;2023-03-05T09:53:02;6.43;;;4.30;;
12958;SDS011;6544;51.666;6.634;2023-03-05T09:55:33;6.57;;;4.03;;
12958;SDS011;6544;51.666;6.634;2023-03-05T09:58:05;3.90;;;3.10;;
12958;SDS011;6544;51.666;6.634;2023-03-05T10:00:37;7.97;;;3.33;;
12958;SDS011;6544;51.666;6.634;2023-03-05T10:03:11;5.23;;;3.30;;
12958;SDS011;6544;51.666;6.634;2023-03-05T10:05:47;6.70;;;3.63;;
12958;SDS011;6544;51.666;6.634;2023-03-05T10:08:22;7.43;;;4.10;;
12958;SDS011;6544;51.666;6.634;2023-03-05T10:10:55;6.93;;;4.23;;
12958;SDS011;6544;51.666;6.634;2023-03-05T10:13:29;6.87;;;4.40;;
12958;SDS011;6544;51.666;6.634;2023-03-05T10:16:02;7.70;;;4.90;;
12958;SDS011;6544;51.666;6.634;2023-03-05T10:18:45;9.30;;;5.07;;
12958;SDS011;6544;51.666;6.634;2023-03-05T10:21:23;11.00;;;5.33;;
12958;SDS011;6544;51.666;6.634;2023-03-05T10:23:58;7.03;;;5.13;;
12958;SDS011;6544;51.666;6.634;2023-03-05T10:26:39;7.97;;;5.60;;
12958;SDS011;6544;51.666;6.634;2023-03-05T10:29:36;12.33;;;6.10;;
12958;SDS011;6544;51.666;6.634;2023-03-05T10:32:16;8.67;;;5.70;;
12958;SDS011;6544;51.666;6.634;2023-03-05T10:37:53;15.17;;;8.20;;
12958;SDS011;6544;51.666;6.634;2023-03-05T10:40:37;7.90;;;4.53;;
12958;SDS011;6544;51.666;6.634;2023-03-05T10:43:12;11.93;;;7.20;;
12958;SDS011;6544;51.666;6.634;2023-03-05T10:45:49;7.53;;;5.13;;
12958;SDS011;6544;51.666;6.634;2023-03-05T10:48:22;8.27;;;4.60;;
12958;SDS011;6544;51.666;6.634;2023-03-05T10:50:56;9.47;;;4.20;;
12958;SDS011;6544;51.666;6.634;2023-03-05T10:53:27;8.97;;;3.60;;
12958;SDS011;6544;51.666;6.634;2023-03-05T10:55:59;7.47;;;4.10;;
12958;SDS011;6544;51.666;6.634;2023-03-05T10:58:27;8.33;;;4.70;;
12958;SDS011;6544;51.666;6.634;2023-03-05T11:01:01;5.37;;;4.00;;
12958;SDS011;6544;51.666;6.634;2023-03-05T11:03:45;5.63;;;3.40;;
12958;SDS011;6544;51.666;6.634;2023-03-05T11:06:15;7.67;;;3.80;;
12958;SDS011;6544;51.666;6.634;2023-03-05T11:08:53;6.80;;;3.20;;
12958;SDS011;6544;51.666;6.634;2023-03-05T11:11:20;5.33;;;2.83;;
12958;SDS011;6544;51.666;6.634;2023-03-05T11:13:53;5.67;;;2.83;;
12958;SDS011;6544;51.666;6.634;2023-03-05T11:16:22;3.63;;;2.47;;
12958;SDS011;6544;51.666;6.634;2023-03-05T11:18:52;4.20;;;2.70;;
12958;SDS011;6544;51.666;6.634;2023-03-05T11:21:43;5.57;;;2.70;;
12958;SDS011;6544;51.666;6.634;2023-03-05T11:24:12;4.90;;;2.83;;
12958;SDS011;6544;51.666;6.634;2023-03-05T11:26:44;5.60;;;2.90;;
12958;SDS011;6544;51.666;6.634;2023-03-05T11:29:18;6.47;;;3.57;;
12958;SDS011;6544;51.666;6.634;2023-03-05T11:31:47;6.50;;;3.20;;
12958;SDS011;6544;51.666;6.634;2023-03-05T11:34:22;5.10;;;2.90;;
12958;SDS011;6544;51.666;6.634;2023-03-05T11:37:00;5.50;;;2.73;;
12958;SDS011;6544;51.666;6.634;2023-03-05T11:39:30;4.87;;;2.40;;
12958;SDS011;6544;51.666;6.634;2023-03-05T11:42:00;6.05;;;2.60;;
12958;SDS011;6544;51.666;6.634;2023-03-05T11:44:31;7.07;;;2.70;;
12958;SDS011;6544;51.666;6.634;2023-03-05T11:47:01;3.88;;;2.47;;
12958;SDS011;6544;51.666;6.634;2023-03-05T11:49:30;5.47;;;2.53;;
12958;SDS011;6544;51.666;6.634;2023-03-05T11:52:00;5.75;;;2.58;;
12958;SDS011;6544;51.666;6.634;2023-03-05T11:54:33;5.18;;;2.60;;
12958;SDS011;6544;51.666;6.634;2023-03-05T11:57:07;5.60;;;3.53;;
12958;SDS011;6544;51.666;6.634;2023-03-05T11:59:38;7.67;;;6.13;;
12958;SDS011;6544;51.666;6.634;2023-03-05T12:02:13;11.93;;;8.10;;
12958;SDS011;6544;51.666;6.634;2023-03-05T12:04:43;17.77;;;13.93;;
12958;SDS011;6544;51.666;6.634;2023-03-05T12:07:12;8.52;;;5.13;;
12958;SDS011;6544;51.666;6.634;2023-03-05T12:09:44;7.18;;;4.38;;
12958;SDS011;6544;51.666;6.634;2023-03-05T12:12:17;26.73;;;18.60;;
12958;SDS011;6544;51.666;6.634;2023-03-05T12:15:08;10.73;;;6.77;;
12958;SDS011;6544;51.666;6.634;2023-03-05T12:17:57;5.67;;;3.83;;
12958;SDS011;6544;51.666;6.634;2023-03-05T12:20:33;4.40;;;2.50;;
12958;SDS011;6544;51.666;6.634;2023-03-05T12:23:12;5.57;;;2.97;;
12958;SDS011;6544;51.666;6.634;2023-03-05T12:25:44;3.85;;;2.40;;
12958;SDS011;6544;51.666;6.634;2023-03-05T12:29:58;3.75;;;2.20;;
12958;SDS011;6544;51.666;6.634;2023-03-05T12:31:46;8.57;;;3.50;;
12958;SDS011;6544;51.666;6.634;2023-03-05T12:34:34;4.13;;;3.00;;
12958;SDS011;6544;51.666;6.634;2023-03-05T12:37:12;6.33;;;3.97;;
12958;SDS011;6544;51.666;6.634;2023-03-05T12:40:01;6.30;;;4.40;;
12958;SDS011;6544;51.666;6.634;2023-03-05T12:42:45;4.43;;;3.70;;
12958;SDS011;6544;51.666;6.634;2023-03-05T12:45:25;4.57;;;2.90;;
12958;SDS011;6544;51.666;6.634;2023-03-05T12:51:01;6.93;;;2.63;;
12958;SDS011;6544;51.666;6.634;2023-03-05T12:53:28;3.65;;;2.33;;
12958;SDS011;6544;51.666;6.634;2023-03-05T12:56:03;5.00;;;2.58;;
12958;SDS011;6544;51.666;6.634;2023-03-05T12:58:39;3.95;;;2.75;;
12958;SDS011;6544;51.666;6.634;2023-03-05T13:01:14;4.50;;;2.47;;
12958;SDS011;6544;51.666;6.634;2023-03-05T13:03:55;3.65;;;2.30;;
12958;SDS011;6544;51.666;6.634;2023-03-05T13:06:26;3.15;;;2.55;;
12958;SDS011;6544;51.666;6.634;2023-03-05T13:08:55;3.92;;;2.10;;
12958;SDS011;6544;51.666;6.634;2023-03-05T13:11:25;3.03;;;2.22;;
12958;SDS011;6544;51.666;6.634;2023-03-05T13:13:53;4.38;;;2.20;;
12958;SDS011;6544;51.666;6.634;2023-03-05T13:16:22;3.88;;;2.03;;
12958;SDS011;6544;51.666;6.634;2023-03-05T13:18:51;3.50;;;2.00;;
12958;SDS011;6544;51.666;6.634;2023-03-05T13:21:19;3.10;;;1.90;;
12958;SDS011;6544;51.666;6.634;2023-03-05T13:23:52;4.35;;;2.00;;
12958;SDS011;6544;51.666;6.634;2023-03-05T13:26:23;3.05;;;1.90;;
12958;SDS011;6544;51.666;6.634;2023-03-05T13:29:08;4.85;;;1.90;;
12958;SDS011;6544;51.666;6.634;2023-03-05T13:31:41;2.20;;;1.88;;
12958;SDS011;6544;51.666;6.634;2023-03-05T13:34:12;5.33;;;2.10;;
12958;SDS011;6544;51.666;6.634;2023-03-05T13:36:54;7.03;;;2.20;;
12958;SDS011;6544;51.666;6.634;2023-03-05T13:39:25;3.23;;;1.87;;
12958;SDS011;6544;51.666;6.634;2023-03-05T13:41:56;3.28;;;2.00;;
12958;SDS011;6544;51.666;6.634;2023-03-05T13:44:29;3.95;;;1.83;;
12958;SDS011;6544;51.666;6.634;2023-03-05T13:47:08;4.30;;;1.88;;
12958;SDS011;6544;51.666;6.634;2023-03-05T13:49:40;3.05;;;1.80;;
12958;SDS011;6544;51.666;6.634;2023-03-05T13:52:08;2.10;;;1.70;;
12958;SDS011;6544;51.666;6.634;2023-03-05T13:54:39;3.08;;;1.63;;
12958;SDS011;6544;51.666;6.634;2023-03-05T13:57:20;1.88;;;1.65;;
12958;SDS011;6544;51.666;6.634;2023-03-05T14:00:00;3.03;;;1.60;;
12958;SDS011;6544;51.666;6.634;2023-03-05T14:02:28;3.60;;;1.85;;
12958;SDS011;6544;51.666;6.634;2023-03-05T14:04:55;3.22;;;1.85;;
12958;SDS011;6544;51.666;6.634;2023-03-05T14:07:28;3.15;;;1.88;;
12958;SDS011;6544;51.666;6.634;2023-03-05T14:09:58;2.10;;;1.80;;
12958;SDS011;6544;51.666;6.634;2023-03-05T14:12:28;3.72;;;1.90;;
12958;SDS011;6544;51.666;6.634;2023-03-05T14:15:01;4.25;;;2.00;;
12958;SDS011;6544;51.666;6.634;2023-03-05T14:17:33;5.00;;;1.80;;
12958;SDS011;6544;51.666;6.634;2023-03-05T14:20:07;4.30;;;1.77;;
12958;SDS011;6544;51.666;6.634;2023-03-05T14:22:44;4.78;;;2.10;;
12958;SDS011;6544;51.666;6.634;2023-03-05T14:25:24;2.67;;;1.83;;
12958;SDS011;6544;51.666;6.634;2023-03-05T14:27:54;2.95;;;1.90;;
12958;SDS011;6544;51.666;6.634;2023-03-05T14:30:23;1.92;;;1.70;;
12958;SDS011;6544;51.666;6.634;2023-03-05T14:32:52;2.45;;;1.60;;
12958;SDS011;6544;51.666;6.634;2023-03-05T14:35:22;4.38;;;1.73;;
12958;SDS011;6544;51.666;6.634;2023-03-05T14:37:51;4.28;;;2.10;;
12958;SDS011;6544;51.666;6.634;2023-03-05T14:40:21;4.15;;;1.95;;
12958;SDS011;6544;51.666;6.634;2023-03-05T14:42:52;3.45;;;2.33;;
12958;SDS011;6544;51.666;6.634;2023-03-05T14:45:21;3.20;;;2.00;;
12958;SDS011;6544;51.666;6.634;2023-03-05T14:47:51;3.55;;;2.30;;
12958;SDS011;6544;51.666;6.634;2023-03-05T14:50:19;4.75;;;2.45;;
12958;SDS011;6544;51.666;6.634;2023-03-05T14:52:48;4.50;;;2.60;;
12958;SDS011;6544;51.666;6.634;2023-03-05T14:55:18;3.42;;;2.35;;
12958;SDS011;6544;51.666;6.634;2023-03-05T14:57:47;5.22;;;2.47;;
12958;SDS011;6544;51.666;6.634;2023-03-05T15:00:15;3.67;;;2.67;;
12958;SDS011;6544;51.666;6.634;2023-03-05T15:02:45;6.18;;;2.78;;
12958;SDS011;6544;51.666;6.634;2023-03-05T15:05:13;3.78;;;2.83;;
12958;SDS011;6544;51.666;6.634;2023-03-05T15:07:40;2.80;;;2.30;;
12958;SDS011;6544;51.666;6.634;2023-03-05T15:10:09;3.72;;;2.80;;
12958;SDS011;6544;51.666;6.634;2023-03-05T15:12:39;5.60;;;3.00;;
12958;SDS011;6544;51.666;6.634;2023-03-05T15:15:07;3.45;;;2.75;;
12958;SDS011;6544;51.666;6.634;2023-03-05T15:17:39;3.47;;;2.60;;
12958;SDS011;6544;51.666;6.634;2023-03-05T15:20:13;4.07;;;3.00;;
12958;SDS011;6544;51.666;6.634;2023-03-05T15:22:45;5.53;;;3.13;;
12958;SDS011;6544;51.666;6.634;2023-03-05T15:25:12;4.13;;;2.77;;